CheckWX is a tool to help pilots better visualize weather data.  It is not intended as a substitute for an official pre-flight weather briefing.

02:49:47 UTC

KSDB METAR
Sandberg Airport
Sandberg, California, USA
Current

57 mins ago

KSDB 230153Z AUTO 19010KT 10SM CLR 22/M01 A3009 RMK AO2 SLP138 T02171006
Observed
Sep-23 @ 01:53 UTC
Wind
  • 190° at 10 KTS
Visibility
10 SM
Flight Rules
VFR
Cloud Levels
  • Clear skies
Temperature
22°C / 72°F
Dewpoint
-1°C / 30°F
Humidity
22%
Altimeter
30.09" Hg
Pressure
1018.92 hPa
Previous

2 hours ago

KSDB 230053Z AUTO 20015G21KT 10SM CLR 24/M02 A3009 RMK AO2 SLP135 T02391017
Observed
Sep-23 @ 00:53 UTC
Wind
  • 200° at 15 KTS
  • Gusting to 21 KTS
Visibility
10 SM
Flight Rules
VFR
Cloud Levels
  • Clear skies
Temperature
24°C / 75°F
Dewpoint
-2°C / 28°F
Humidity
18%
Altimeter
30.09" Hg
Pressure
1018.92 hPa
Previous

3 hours ago

KSDB 222353Z AUTO 19016G21KT 10SM CLR 26/M04 A3008 RMK AO2 SLP130 T02561039 10272 20244 56008
Observed
Sep-22 @ 23:53 UTC
Wind
  • 190° at 16 KTS
  • Gusting to 21 KTS
Visibility
10 SM
Flight Rules
VFR
Cloud Levels
  • Clear skies
Temperature
26°C / 79°F
Dewpoint
-4°C / 25°F
Humidity
13%
Altimeter
30.08" Hg
Pressure
1018.62 hPa